createdAt,value
2018-04-19T00:00:25.376Z,9.80
2018-04-19T00:02:53.532Z,9.80
2018-04-19T00:05:21.780Z,9.90
2018-04-19T00:07:49.935Z,9.80
2018-04-19T00:10:18.087Z,9.80
2018-04-19T00:12:46.635Z,9.80
2018-04-19T00:15:14.789Z,9.80
2018-04-19T00:17:43.721Z,9.80
2018-04-19T00:20:12.959Z,9.70
2018-04-19T00:22:41.157Z,9.70
2018-04-19T00:25:09.359Z,9.70
2018-04-19T00:27:37.501Z,9.70
2018-04-19T00:30:05.666Z,9.50
2018-04-19T00:32:33.913Z,9.50
2018-04-19T00:35:03.270Z,9.50
2018-04-19T00:37:31.410Z,9.60
2018-04-19T00:39:59.587Z,9.60
2018-04-19T00:42:28.599Z,9.60
2018-04-19T00:44:56.762Z,9.40
2018-04-19T00:47:25.663Z,9.30
2018-04-19T00:49:53.829Z,9.30
2018-04-19T00:52:22.123Z,9.20
2018-04-19T00:54:50.272Z,9.20
2018-04-19T00:57:19.416Z,9.20
2018-04-19T00:59:47.571Z,9.10
2018-04-19T01:02:15.940Z,9.00
2018-04-19T01:04:44.085Z,9.00
2018-04-19T01:07:12.269Z,9.00
2018-04-19T01:09:40.833Z,9.00
2018-04-19T01:12:12.012Z,9.00
2018-04-19T01:14:40.304Z,8.90
2018-04-19T01:17:08.852Z,8.90
2018-04-19T01:19:37.014Z,8.90
2018-04-19T01:22:07.169Z,8.90
2018-04-19T01:24:35.327Z,8.90
2018-04-19T01:27:04.279Z,8.90
2018-04-19T01:29:32.424Z,8.90
2018-04-19T01:32:00.669Z,8.90
2018-04-19T01:34:28.849Z,8.80
2018-04-19T01:36:59.079Z,8.80
2018-04-19T01:39:27.209Z,8.80
2018-04-19T01:41:55.417Z,8.80
2018-04-19T01:44:24.332Z,8.80
2018-04-19T01:46:52.637Z,8.80
2018-04-19T01:49:20.835Z,8.70
2018-04-19T01:51:49.008Z,8.80
2018-04-19T01:54:17.164Z,8.70
2018-04-19T01:56:45.349Z,8.60
2018-04-19T01:59:13.495Z,8.50
2018-04-19T02:01:42.940Z,8.50
2018-04-19T02:04:11.204Z,8.50
2018-04-19T02:06:39.371Z,8.50
2018-04-19T02:09:07.570Z,8.50
2018-04-19T02:11:36.181Z,8.50
2018-04-19T02:14:04.345Z,8.50
2018-04-19T02:16:32.501Z,8.60
2018-04-19T02:19:02.010Z,8.50
2018-04-19T02:21:30.299Z,8.50
2018-04-19T02:23:59.178Z,8.40
2018-04-19T02:26:27.339Z,8.40
2018-04-19T02:28:56.062Z,8.30
2018-04-19T02:31:24.236Z,8.30
2018-04-19T02:33:52.397Z,8.40
2018-04-19T02:36:20.569Z,8.40
2018-04-19T02:38:48.736Z,8.30
2018-04-19T02:41:17.648Z,8.30
2018-04-19T02:43:45.803Z,8.30
2018-04-19T02:46:13.955Z,8.20
2018-04-19T02:48:42.152Z,8.20
2018-04-19T02:51:10.428Z,8.30
2018-04-19T02:53:38.594Z,8.20
2018-04-19T02:56:07.515Z,8.10
2018-04-19T02:58:35.687Z,8.10
2018-04-19T03:01:03.841Z,8.10
2018-04-19T03:03:32.776Z,8.10
2018-04-19T03:06:01.792Z,8.00
2018-04-19T03:08:30.076Z,8.00
2018-04-19T03:10:58.244Z,8.00
2018-04-19T03:13:26.403Z,8.00
2018-04-19T03:15:54.574Z,7.90
2018-04-19T03:18:23.601Z,7.90
2018-04-19T03:20:51.766Z,7.80
2018-04-19T03:23:21.938Z,7.80
2018-04-19T03:25:50.109Z,7.80
2018-04-19T03:28:18.260Z,7.90
2018-04-19T03:30:46.448Z,7.90
2018-04-19T03:33:14.645Z,7.80
2018-04-19T03:35:42.803Z,7.80
2018-04-19T03:38:10.950Z,7.80
2018-04-19T03:40:39.094Z,7.80
2018-04-19T03:43:07.320Z,7.80
2018-04-19T03:45:36.316Z,7.60
2018-04-19T03:48:04.477Z,7.60
2018-04-19T03:50:32.628Z,7.60
2018-04-19T03:53:00.845Z,7.50
2018-04-19T03:55:28.991Z,7.50
2018-04-19T03:57:57.916Z,7.50
2018-04-19T04:00:26.067Z,7.50
2018-04-19T04:02:55.056Z,7.50
2018-04-19T04:05:24.023Z,7.50
2018-04-19T04:07:53.149Z,7.50
2018-04-19T04:10:21.316Z,7.50
2018-04-19T04:12:49.517Z,7.50
2018-04-19T04:15:17.679Z,7.50
2018-04-19T04:17:57.559Z,7.50
2018-04-19T04:20:37.455Z,7.40
2018-04-19T04:23:24.486Z,7.30
2018-04-19T04:25:53.467Z,7.30
2018-04-19T04:28:21.617Z,7.30
2018-04-19T04:30:49.765Z,7.30
2018-04-19T04:33:18.919Z,7.30
2018-04-19T04:35:47.146Z,7.30
2018-04-19T04:38:15.588Z,7.30
2018-04-19T04:40:44.552Z,7.30
2018-04-19T04:43:12.701Z,7.20
2018-04-19T04:45:41.259Z,7.30
2018-04-19T04:48:10.205Z,7.30
2018-04-19T04:50:38.375Z,7.40
2018-04-19T04:53:06.659Z,7.30
2018-04-19T04:55:35.583Z,7.40
2018-04-19T04:58:04.991Z,7.40
2018-04-19T05:00:34.043Z,7.40
2018-04-19T05:03:02.228Z,7.40
2018-04-19T05:05:31.223Z,7.50
2018-04-19T05:07:59.377Z,7.50
2018-04-19T05:10:27.524Z,7.50
2018-04-19T05:12:55.685Z,7.70
2018-04-19T05:15:23.856Z,7.60
2018-04-19T05:17:52.027Z,7.60
2018-04-19T05:20:20.287Z,7.60
2018-04-19T05:22:48.556Z,7.60
2018-04-19T05:25:17.455Z,7.60
2018-04-19T05:27:45.624Z,7.70
2018-04-19T05:30:13.804Z,7.80
2018-04-19T05:32:42.088Z,7.90
2018-04-19T05:35:10.241Z,8.00
2018-04-19T05:37:38.648Z,8.10
2018-04-19T05:40:06.794Z,8.20
2018-04-19T05:42:34.981Z,8.30
2018-04-19T05:45:03.136Z,8.40
2018-04-19T05:47:32.067Z,8.50
2018-04-19T05:50:00.202Z,8.50
2018-04-19T05:52:28.471Z,8.60
2018-04-19T05:54:56.634Z,8.80
2018-04-19T05:57:24.810Z,8.80
2018-04-19T05:59:52.968Z,9.00
2018-04-19T06:02:21.875Z,9.10
2018-04-19T06:04:50.790Z,9.30
2018-04-19T06:07:18.952Z,9.30
2018-04-19T06:09:47.111Z,9.30
2018-04-19T06:12:15.314Z,9.50
2018-04-19T06:14:43.503Z,9.70
2018-04-19T06:17:12.213Z,9.80
2018-04-19T06:19:40.369Z,9.80
2018-04-19T06:22:09.752Z,10.00
2018-04-19T06:24:38.144Z,10.00
2018-04-19T06:27:07.092Z,10.20
2018-04-19T06:29:35.293Z,10.20
2018-04-19T06:32:09.835Z,10.30
2018-04-19T06:34:38.045Z,10.50
2018-04-19T06:37:06.201Z,10.70
2018-04-19T06:39:34.422Z,11.00
2018-04-19T06:42:03.652Z,11.30
2018-04-19T06:44:31.845Z,11.50
2018-04-19T06:47:00.006Z,11.80
2018-04-19T06:49:28.156Z,11.80
2018-04-19T06:51:57.316Z,12.00
2018-04-19T06:54:25.524Z,12.40
2018-04-19T06:56:53.675Z,12.70
2018-04-19T06:59:21.838Z,13.10
2018-04-19T07:01:52.012Z,13.20
2018-04-19T07:04:20.165Z,13.40
2018-04-19T07:06:49.084Z,14.20
2018-04-19T07:09:17.266Z,14.10
2018-04-19T07:11:45.524Z,14.50
2018-04-19T07:14:13.696Z,14.90
2018-04-19T07:16:42.963Z,15.40
2018-04-19T07:19:11.121Z,15.40
2018-04-19T07:21:39.300Z,15.70
2018-04-19T07:24:11.507Z,16.10
2018-04-19T07:26:39.659Z,16.30
2018-04-19T07:29:08.430Z,16.50
2018-04-19T07:31:36.664Z,16.60
2018-04-19T07:34:04.849Z,16.70
2018-04-19T07:36:32.999Z,16.80
2018-04-19T07:39:01.210Z,16.90
2018-04-19T07:41:29.363Z,17.00
2018-04-19T07:43:57.533Z,17.30
2018-04-19T07:46:26.282Z,17.40
2018-04-19T07:48:54.429Z,17.40
2018-04-19T07:51:23.049Z,17.60
2018-04-19T07:53:51.222Z,17.60
2018-04-19T07:56:20.152Z,17.70
2018-04-19T07:58:48.316Z,17.80
2018-04-19T08:01:16.810Z,17.90
2018-04-19T08:03:44.976Z,18.00
2018-04-19T08:06:13.387Z,18.10
2018-04-19T08:08:41.547Z,18.20
2018-04-19T08:11:09.975Z,18.30
2018-04-19T08:13:38.132Z,18.40
2018-04-19T08:16:06.314Z,18.40
2018-04-19T08:18:35.264Z,18.40
2018-04-19T08:21:04.242Z,18.50
2018-04-19T08:23:32.393Z,18.60
2018-04-19T08:26:00.557Z,18.70
2018-04-19T08:28:28.728Z,18.70
2018-04-19T08:30:56.882Z,18.80
2018-04-19T08:33:25.048Z,18.90
2018-04-19T08:35:53.217Z,18.90
2018-04-19T08:38:21.403Z,19.00
2018-04-19T08:40:49.591Z,19.00
2018-04-19T08:43:17.893Z,19.10
2018-04-19T08:45:49.381Z,19.40
2018-04-19T08:48:21.284Z,19.50
2018-04-19T08:50:50.787Z,19.50
2018-04-19T08:53:21.178Z,19.70
2018-04-19T08:55:51.829Z,19.80
2018-04-19T08:58:20.759Z,19.90
2018-04-19T09:00:51.764Z,20.00
2018-04-19T09:03:20.379Z,20.10
2018-04-19T09:05:48.542Z,20.00
2018-04-19T09:08:19.491Z,20.10
2018-04-19T09:13:27.549Z,20.20
2018-04-19T09:15:57.779Z,20.20
2018-04-19T09:18:25.920Z,20.40
2018-04-19T09:20:54.098Z,20.50
2018-04-19T09:23:22.286Z,20.60
2018-04-19T09:25:50.849Z,20.80
2018-04-19T09:28:19.427Z,20.90
2018-04-19T09:30:49.365Z,21.00
2018-04-19T09:33:17.673Z,21.10
2018-04-19T09:35:45.839Z,21.10
2018-04-19T09:38:14.004Z,21.20
2018-04-19T09:40:42.152Z,21.40
2018-04-19T09:43:13.391Z,21.40
2018-04-19T09:45:41.565Z,21.50
2018-04-19T09:48:09.743Z,21.50
2018-04-19T09:50:39.010Z,21.70
2018-04-19T09:53:07.969Z,21.80
2018-04-19T09:55:36.152Z,22.00
2018-04-19T09:58:09.090Z,22.00
2018-04-19T10:00:43.514Z,22.10
2018-04-19T10:05:47.689Z,22.20
2018-04-19T10:08:15.853Z,22.40
2018-04-19T10:10:44.037Z,22.50
2018-04-19T10:13:12.219Z,22.60
2018-04-19T10:15:41.136Z,22.70
2018-04-19T10:18:09.339Z,23.00
2018-04-19T10:20:37.579Z,23.10
2018-04-19T10:23:07.783Z,23.20
2018-04-19T10:25:36.708Z,23.20
2018-04-19T10:28:04.853Z,23.30
2018-04-19T10:30:33.240Z,23.30
2018-04-19T10:33:02.290Z,23.30
2018-04-19T10:35:30.456Z,23.30
2018-04-19T10:38:00.543Z,23.40
2018-04-19T10:40:29.837Z,23.50
2018-04-19T10:43:00.090Z,23.60
2018-04-19T10:45:29.746Z,23.70
2018-04-19T10:47:59.045Z,23.70
2018-04-19T10:50:27.188Z,23.80
2018-04-19T10:52:56.922Z,23.80
2018-04-19T10:55:25.043Z,23.70
2018-04-19T10:57:53.204Z,23.90
2018-04-19T11:00:22.283Z,23.90
2018-04-19T11:02:50.524Z,24.20
2018-04-19T11:05:20.170Z,24.20
2018-04-19T11:07:49.453Z,24.30
2018-04-19T11:10:20.602Z,24.30
2018-04-19T11:12:48.943Z,24.40
2018-04-19T11:15:17.148Z,24.40
2018-04-19T11:17:45.389Z,24.40
2018-04-19T11:20:15.088Z,24.40
2018-04-19T11:22:44.217Z,24.50
2018-04-19T11:25:12.445Z,24.60
2018-04-19T11:27:40.688Z,24.60
2018-04-19T11:30:09.888Z,24.60
2018-04-19T11:32:38.263Z,24.70
2018-04-19T11:35:08.375Z,24.80
2018-04-19T11:37:36.577Z,24.90
2018-04-19T11:40:06.234Z,25.00
2018-04-19T11:42:34.617Z,25.10
2018-04-19T11:45:02.920Z,25.10
2018-04-19T11:47:31.148Z,25.10
2018-04-19T11:49:59.455Z,25.20
2018-04-19T11:52:29.003Z,25.20
2018-04-19T11:54:57.248Z,25.20
2018-04-19T11:57:25.524Z,25.20
2018-04-19T11:59:53.909Z,25.30
2018-04-19T12:02:26.457Z,25.50
2018-04-19T12:04:54.731Z,24.10
2018-04-19T12:07:22.972Z,25.60
2018-04-19T12:09:52.549Z,25.80
2018-04-19T12:12:20.831Z,25.90
2018-04-19T12:14:49.017Z,25.90
2018-04-19T12:17:18.775Z,25.90
2018-04-19T12:19:48.838Z,26.00
2018-04-19T12:22:17.040Z,26.10
2018-04-19T12:24:45.937Z,26.10
2018-04-19T12:27:14.861Z,26.10
2018-04-19T12:29:43.083Z,26.10
2018-04-19T12:32:11.509Z,26.20
2018-04-19T12:34:39.663Z,25.90
2018-04-19T12:37:08.381Z,25.90
2018-04-19T12:39:36.526Z,26.10
2018-04-19T12:42:04.828Z,26.30
2018-04-19T12:44:33.195Z,26.40
2018-04-19T12:47:01.344Z,26.50
2018-04-19T12:49:30.275Z,26.70
2018-04-19T12:51:58.529Z,26.70
2018-04-19T12:54:26.810Z,26.80
2018-04-19T12:56:54.959Z,26.90
2018-04-19T12:59:23.117Z,27.20
2018-04-19T13:01:55.319Z,27.20
2018-04-19T13:04:23.595Z,27.30
2018-04-19T13:06:52.436Z,27.60
2018-04-19T13:09:20.755Z,27.70
2018-04-19T13:11:48.844Z,27.70
2018-04-19T13:14:17.012Z,27.80
2018-04-19T13:16:45.170Z,27.80
2018-04-19T13:19:13.350Z,27.80
2018-04-19T13:21:42.347Z,27.80
2018-04-19T13:24:10.487Z,27.80
2018-04-19T13:26:38.630Z,27.90
2018-04-19T13:29:06.789Z,28.10
2018-04-19T13:31:35.036Z,28.30
2018-04-19T13:34:03.205Z,28.30
2018-04-19T13:36:31.366Z,28.40
2018-04-19T13:38:59.530Z,28.60
2018-04-19T13:41:27.750Z,30.50
2018-04-19T13:43:55.876Z,30.60
2018-04-19T13:46:24.047Z,31.60
2018-04-19T13:48:54.438Z,32.40
2018-04-19T13:51:22.698Z,33.90
2018-04-19T13:53:50.849Z,34.30
2018-04-19T13:56:20.957Z,34.90
2018-04-19T13:58:49.111Z,35.40
2018-04-19T14:01:17.295Z,35.40
2018-04-19T14:03:45.439Z,36.30
2018-04-19T14:06:13.584Z,36.30
2018-04-19T14:08:41.733Z,36.30
2018-04-19T14:11:10.797Z,37.10
2018-04-19T14:13:40.357Z,37.10
2018-04-19T14:16:08.838Z,37.80
2018-04-19T14:18:36.983Z,38.20
2018-04-19T14:21:05.140Z,38.90
2018-04-19T14:23:33.304Z,38.90
2018-04-19T14:26:01.446Z,38.50
2018-04-19T14:28:29.598Z,38.70
2018-04-19T14:30:59.178Z,38.00
2018-04-19T14:33:27.328Z,37.90
2018-04-19T14:35:56.123Z,37.90
2018-04-19T14:38:24.321Z,37.80
2018-04-19T14:40:54.137Z,37.80
2018-04-19T14:43:22.299Z,38.40
2018-04-19T14:45:50.451Z,38.20
2018-04-19T14:48:19.283Z,38.20
2018-04-19T14:50:48.196Z,38.80
2018-04-19T14:53:23.401Z,38.80
2018-04-19T14:55:53.303Z,37.90
2018-04-19T14:58:25.408Z,37.90
2018-04-19T15:00:53.563Z,37.50
2018-04-19T15:03:22.483Z,37.50
2018-04-19T15:05:50.640Z,38.20
2018-04-19T15:08:19.572Z,39.00
2018-04-19T15:10:48.693Z,39.00
2018-04-19T15:13:17.560Z,37.70
2018-04-19T15:15:45.710Z,39.30
2018-04-19T15:18:15.718Z,38.70
2018-04-19T15:20:45.846Z,38.70
2018-04-19T15:23:14.153Z,38.70
2018-04-19T15:25:42.304Z,38.40
2018-04-19T15:28:10.450Z,38.00
2018-04-19T15:30:38.680Z,38.00
2018-04-19T15:33:06.824Z,37.90
2018-04-19T15:35:34.979Z,37.90
2018-04-19T15:38:03.157Z,37.90
2018-04-19T15:40:32.065Z,36.80
2018-04-19T15:43:01.591Z,35.90
2018-04-19T15:45:29.742Z,35.80
2018-04-19T15:47:57.897Z,32.80
2018-04-19T15:50:26.078Z,32.70
2018-04-19T15:52:54.268Z,30.80
2018-04-19T15:55:22.436Z,30.30
2018-04-19T15:57:50.621Z,29.30
2018-04-19T16:00:18.892Z,28.80
2018-04-19T16:02:58.281Z,28.40
2018-04-19T16:05:28.402Z,28.10
2018-04-19T16:08:03.434Z,27.80
2018-04-19T16:10:31.783Z,27.50
2018-04-19T16:13:05.756Z,27.50
2018-04-19T16:15:35.981Z,26.90
2018-04-19T16:18:04.928Z,26.70
2018-04-19T16:20:33.726Z,26.60
2018-04-19T16:23:04.303Z,26.40
2018-04-19T16:25:34.613Z,26.40
2018-04-19T16:28:03.677Z,26.40
2018-04-19T16:30:31.831Z,26.10
2018-04-19T16:33:16.392Z,26.00
2018-04-19T16:35:44.814Z,25.90
2018-04-19T16:38:12.953Z,25.90
2018-04-19T16:40:41.099Z,25.80
2018-04-19T16:43:10.310Z,25.70
2018-04-19T16:45:38.758Z,25.60
2018-04-19T16:48:06.994Z,25.60
2018-04-19T16:50:35.772Z,25.50
2018-04-19T16:53:04.962Z,25.50
2018-04-19T16:55:33.090Z,25.30
2018-04-19T16:58:03.329Z,25.30
2018-04-19T17:00:31.477Z,25.30
2018-04-19T17:03:00.587Z,25.30
2018-04-19T17:05:30.145Z,25.10
2018-04-19T17:07:58.299Z,25.00
2018-04-19T17:10:28.742Z,24.90
2018-04-19T17:12:58.993Z,24.80
2018-04-19T17:15:27.284Z,24.70
2018-04-19T17:17:55.465Z,24.60
2018-04-19T17:20:23.602Z,24.60
2018-04-19T17:22:54.445Z,24.50
2018-04-19T17:25:25.723Z,24.40
2018-04-19T17:27:53.860Z,24.30
2018-04-19T17:30:22.929Z,24.30
2018-04-19T17:32:53.763Z,24.20
2018-04-19T17:35:21.917Z,24.20
2018-04-19T17:37:50.087Z,24.10
2018-04-19T17:40:19.315Z,23.90
2018-04-19T17:42:47.461Z,23.80
2018-04-19T17:45:16.439Z,23.70
2018-04-19T17:47:44.603Z,23.60
2018-04-19T17:50:16.324Z,23.50
2018-04-19T17:52:49.304Z,23.30
2018-04-19T17:55:17.456Z,23.30
2018-04-19T17:57:45.711Z,23.20
2018-04-19T18:00:15.059Z,23.00
2018-04-19T18:02:43.455Z,22.90
2018-04-19T18:05:13.364Z,22.80
2018-04-19T18:07:41.638Z,22.70
2018-04-19T18:10:10.760Z,22.40
2018-04-19T18:12:39.055Z,22.20
2018-04-19T18:15:07.211Z,22.20
2018-04-19T18:17:36.406Z,21.90
2018-04-19T18:20:05.326Z,21.50
2018-04-19T18:22:35.790Z,21.10
2018-04-19T18:25:03.969Z,20.70
2018-04-19T18:27:32.597Z,20.30
2018-04-19T18:30:01.290Z,20.00
2018-04-19T18:32:32.715Z,19.70
2018-04-19T18:35:00.899Z,19.50
2018-04-19T18:37:29.068Z,19.30
2018-04-19T18:39:58.069Z,19.10
2018-04-19T18:42:26.399Z,18.80
2018-04-19T18:44:54.721Z,18.80
2018-04-19T18:47:24.823Z,18.40
2018-04-19T18:49:54.631Z,18.20
2018-04-19T18:52:24.041Z,18.00
2018-04-19T18:54:53.694Z,17.90
2018-04-19T18:57:23.175Z,17.80
2018-04-19T18:59:52.878Z,17.70
2018-04-19T19:02:27.001Z,17.70
2018-04-19T19:04:55.216Z,17.40
2018-04-19T19:07:23.402Z,17.30
2018-04-19T19:09:53.380Z,17.20
2018-04-19T19:12:27.144Z,17.10
2018-04-19T19:14:55.456Z,17.00
2018-04-19T19:17:36.106Z,17.00
2018-04-19T19:20:13.291Z,16.90
2018-04-19T19:22:41.640Z,16.80
2018-04-19T19:25:10.663Z,16.80
2018-04-19T19:27:38.858Z,16.80
2018-04-19T19:30:10.418Z,16.70
2018-04-19T19:32:39.633Z,16.70
2018-04-19T19:35:07.781Z,16.50
2018-04-19T19:37:35.967Z,16.40
2018-04-19T19:40:04.117Z,16.40
2018-04-19T19:42:32.531Z,16.30
2018-04-19T19:45:00.693Z,16.30
2018-04-19T19:47:30.680Z,16.20
2018-04-19T19:49:58.989Z,16.10
2018-04-19T19:52:29.137Z,16.10
2018-04-19T19:54:57.632Z,16.00
2018-04-19T19:57:25.803Z,15.90
2018-04-19T19:59:54.166Z,15.70
2018-04-19T20:02:25.520Z,15.50
2018-04-19T20:04:53.686Z,15.40
2018-04-19T20:07:21.875Z,15.40
2018-04-19T20:09:50.030Z,15.40
2018-04-19T20:12:18.205Z,15.30
2018-04-19T20:14:46.364Z,15.30
2018-04-19T20:17:14.535Z,15.30
2018-04-19T20:19:42.732Z,15.20
2018-04-19T20:22:11.895Z,14.90
2018-04-19T20:24:41.443Z,14.70
2018-04-19T20:27:10.472Z,14.60
2018-04-19T20:29:39.764Z,14.60
2018-04-19T20:32:08.131Z,14.60
2018-04-19T20:34:36.309Z,14.50
2018-04-19T20:37:04.895Z,14.30
2018-04-19T20:39:33.497Z,14.20
2018-04-19T20:42:03.945Z,14.00
2018-04-19T20:44:32.165Z,14.00
2018-04-19T20:47:00.878Z,13.90
2018-04-19T20:49:31.693Z,13.70
2018-04-19T20:52:03.374Z,13.70
2018-04-19T20:54:32.955Z,13.70
2018-04-19T20:57:01.742Z,13.60
2018-04-19T20:59:30.023Z,13.70
2018-04-19T21:01:59.280Z,13.70
2018-04-19T21:04:28.684Z,13.60
2018-04-19T21:09:32.228Z,13.50
2018-04-19T21:12:01.737Z,13.40
2018-04-19T21:14:30.052Z,13.30
2018-04-19T21:19:33.548Z,13.20
2018-04-19T21:22:04.884Z,13.10
2018-04-19T21:24:33.395Z,13.00
2018-04-19T21:27:01.964Z,13.00
2018-04-19T21:32:02.961Z,12.90
2018-04-19T21:34:31.225Z,12.90
2018-04-19T21:36:59.394Z,12.80
2018-04-19T21:39:28.374Z,12.90
2018-04-19T21:41:57.411Z,13.00
2018-04-19T21:44:26.412Z,12.90
2018-04-19T21:46:54.581Z,12.70
2018-04-19T21:49:22.740Z,12.60
2018-04-19T21:51:50.909Z,12.50
2018-04-19T21:54:20.475Z,12.50
2018-04-19T21:56:48.844Z,12.50
2018-04-19T21:59:17.772Z,12.40
2018-04-19T22:01:46.179Z,12.50
2018-04-19T22:04:14.505Z,12.50
2018-04-19T22:06:42.655Z,12.40
2018-04-19T22:09:10.849Z,12.40
2018-04-19T22:11:42.116Z,12.30
2018-04-19T22:14:10.410Z,12.20
2018-04-19T22:16:38.612Z,12.00
2018-04-19T22:19:06.973Z,12.00
2018-04-19T22:21:35.283Z,11.90
2018-04-19T22:24:03.839Z,11.90
2018-04-19T22:26:32.054Z,11.80
2018-04-19T22:29:00.323Z,11.70
2018-04-19T22:31:32.032Z,11.60
2018-04-19T22:34:01.348Z,11.50
2018-04-19T22:36:29.548Z,11.40
2018-04-19T22:38:57.726Z,11.30
2018-04-19T22:41:25.945Z,11.30
2018-04-19T22:43:54.132Z,11.30
2018-04-19T22:46:22.316Z,11.40
2018-04-19T22:48:50.479Z,11.50
2018-04-19T22:51:18.639Z,11.40
2018-04-19T22:53:46.817Z,11.40
2018-04-19T22:56:14.990Z,11.30
2018-04-19T22:58:43.178Z,11.20
2018-04-19T23:01:11.423Z,11.20
2018-04-19T23:03:40.345Z,11.10
2018-04-19T23:06:08.512Z,11.10
2018-04-19T23:08:36.703Z,11.00
2018-04-19T23:11:04.917Z,11.10
2018-04-19T23:13:33.174Z,11.00
2018-04-19T23:16:01.339Z,11.00
2018-04-19T23:18:29.915Z,10.90
2018-04-19T23:20:58.085Z,10.90
2018-04-19T23:23:27.055Z,10.80
2018-04-19T23:25:55.217Z,10.80
2018-04-19T23:28:24.155Z,10.70
2018-04-19T23:30:52.322Z,10.70
2018-04-19T23:33:20.458Z,10.60
2018-04-19T23:35:49.398Z,10.60
2018-04-19T23:38:17.561Z,10.50
2018-04-19T23:40:45.716Z,10.60
2018-04-19T23:43:13.930Z,10.60
2018-04-19T23:45:42.106Z,10.50
2018-04-19T23:48:10.265Z,10.30
2018-04-19T23:50:38.466Z,10.20
2018-04-19T23:53:06.623Z,10.10
2018-04-19T23:55:35.638Z,10.00
2018-04-19T23:58:03.815Z,9.80
